BVX402B LGKR-EGBB
Flight info
| Callsign | BVX402B |
|---|---|
| Flight time | 3h 5m |
| Altitude | 36000 |
| Route | OLGAT DCT LUMAR DCT AIOSA DCT SOTOV DCT XEBIX DCT USUDO DCT LIRSU DCT DENUT L610 HEMEL |
| Aircraft | A320/M-SDE3FGHIRWY/LB1 |
Departure
| Time | 2026-04-27 15:04 |
|---|---|
| Airport | Corfu Ioannis Kapodistrias International Airport (LGKR) |
Arrival
| Time | 2026-04-27 18:09 |
|---|---|
| Airport | Birmingham Airport (EGBB) |
| Time | Latitude | Longitude | Altitude | Speed | Heading |
|---|---|---|---|---|---|
| 2026-04-27 14:33 | 39.60894 | 19.91303 | 10 ft | 0 kts | 78° |
| 2026-04-27 14:55 | 39.60893 | 19.91298 | 9 ft | 3 kts | 78° |
| 2026-04-27 14:55 | 39.60888 | 19.91264 | 9 ft | 4 kts | 79° |
| 2026-04-27 14:55 | 39.60883 | 19.91230 | 12 ft | 4 kts | 80° |
| 2026-04-27 14:55 | 39.60878 | 19.91199 | 10 ft | 3 kts | 79° |
| 2026-04-27 14:56 | 39.60880 | 19.91173 | 10 ft | 4 kts | 144° |
| 2026-04-27 14:56 | 39.60904 | 19.91161 | 12 ft | 4 kts | 169° |
| 2026-04-27 14:56 | 39.60905 | 19.91161 | 12 ft | 4 kts | 169° |
| 2026-04-27 14:56 | 39.60881 | 19.91166 | 10 ft | 1 kts | 169° |
| 2026-04-27 14:59 | 39.60880 | 19.91167 | 10 ft | 1 kts | 169° |
| 2026-04-27 14:59 | 39.60863 | 19.91171 | 11 ft | 5 kts | 169° |
| 2026-04-27 14:59 | 39.60817 | 19.91182 | 10 ft | 9 kts | 169° |
| 2026-04-27 15:00 | 39.60741 | 19.91202 | 9 ft | 13 kts | 169° |
| 2026-04-27 15:00 | 39.60639 | 19.91219 | 9 ft | 16 kts | 188° |
| 2026-04-27 15:00 | 39.60526 | 19.91165 | 8 ft | 18 kts | 201° |
| 2026-04-27 15:00 | 39.60396 | 19.91164 | 8 ft | 21 kts | 167° |
| 2026-04-27 15:01 | 39.60247 | 19.91203 | 10 ft | 23 kts | 170° |
| 2026-04-27 15:01 | 39.60082 | 19.91241 | 10 ft | 26 kts | 168° |
| 2026-04-27 15:01 | 39.59891 | 19.91293 | 11 ft | 30 kts | 168° |
| 2026-04-27 15:01 | 39.59678 | 19.91349 | 7 ft | 33 kts | 168° |
| 2026-04-27 15:02 | 39.59439 | 19.91409 | 5 ft | 36 kts | 169° |
| 2026-04-27 15:02 | 39.59240 | 19.91460 | 6 ft | 20 kts | 167° |
| 2026-04-27 15:02 | 39.59175 | 19.91489 | 5 ft | 5 kts | 229° |
| 2026-04-27 15:02 | 39.59186 | 19.91477 | 7 ft | 3 kts | 324° |
| 2026-04-27 15:03 | 39.59210 | 19.91467 | 6 ft | 0 kts | 348° |
| 2026-04-27 15:03 | 39.59515 | 19.91389 | 6 ft | 89 kts | 349° |
| 2026-04-27 15:04 | 39.60378 | 19.91167 | 11 ft | 160 kts | 348° |
| 2026-04-27 15:04 | 39.61545 | 19.90866 | 578 ft | 173 kts | 349° |
| 2026-04-27 15:04 | 39.62723 | 19.91022 | 1397 ft | 178 kts | 32° |
| 2026-04-27 15:04 | 39.63482 | 19.92292 | 2105 ft | 190 kts | 73° |
| 2026-04-27 15:05 | 39.63386 | 19.94061 | 2375 ft | 209 kts | 119° |
| 2026-04-27 15:05 | 39.62281 | 19.95324 | 2687 ft | 230 kts | 161° |
| 2026-04-27 15:05 | 39.60660 | 19.95531 | 3350 ft | 237 kts | 184° |
| 2026-04-27 15:05 | 39.59024 | 19.95257 | 4237 ft | 237 kts | 189° |
| 2026-04-27 15:06 | 39.57390 | 19.94940 | 5127 ft | 237 kts | 179° |
| 2026-04-27 15:06 | 39.55799 | 19.95457 | 5819 ft | 245 kts | 154° |
| 2026-04-27 15:06 | 39.54346 | 19.96688 | 6566 ft | 251 kts | 143° |
| 2026-04-27 15:06 | 39.52982 | 19.98133 | 7349 ft | 253 kts | 140° |
| 2026-04-27 15:07 | 39.51646 | 19.99620 | 8136 ft | 256 kts | 140° |
| 2026-04-27 15:07 | 39.50279 | 20.01125 | 8963 ft | 258 kts | 140° |
| 2026-04-27 15:07 | 39.48910 | 20.02599 | 9783 ft | 260 kts | 140° |
| 2026-04-27 15:07 | 39.47496 | 20.04085 | 10493 ft | 263 kts | 141° |
| 2026-04-27 15:08 | 39.46043 | 20.05582 | 11130 ft | 269 kts | 141° |
| 2026-04-27 15:08 | 39.44553 | 20.07099 | 11781 ft | 275 kts | 143° |
| 2026-04-27 15:08 | 39.42871 | 20.08302 | 12416 ft | 279 kts | 165° |
| 2026-04-27 15:08 | 39.40963 | 20.08541 | 13061 ft | 281 kts | 189° |
| 2026-04-27 15:09 | 39.39117 | 20.07750 | 13730 ft | 281 kts | 214° |
| 2026-04-27 15:09 | 39.37697 | 20.06069 | 14348 ft | 280 kts | 237° |
| 2026-04-27 15:09 | 39.36911 | 20.03771 | 14995 ft | 279 kts | 261° |
| 2026-04-27 15:09 | 39.36902 | 20.01277 | 15630 ft | 279 kts | 283° |
| 2026-04-27 15:10 | 39.37662 | 19.99007 | 16250 ft | 281 kts | 306° |
| 2026-04-27 15:10 | 39.39102 | 19.97283 | 16886 ft | 286 kts | 328° |
| 2026-04-27 15:10 | 39.41004 | 19.96456 | 17523 ft | 294 kts | 352° |
| 2026-04-27 15:10 | 39.43042 | 19.96364 | 18148 ft | 298 kts | 355° |
| 2026-04-27 15:11 | 39.45131 | 19.96326 | 18717 ft | 301 kts | 355° |
| 2026-04-27 15:11 | 39.47220 | 19.96295 | 19247 ft | 302 kts | 355° |
| 2026-04-27 15:11 | 39.49342 | 19.96262 | 19799 ft | 304 kts | 355° |
| 2026-04-27 15:11 | 39.51431 | 19.95989 | 20310 ft | 302 kts | 342° |
| 2026-04-27 15:12 | 39.53386 | 19.95001 | 20780 ft | 303 kts | 328° |
| 2026-04-27 15:12 | 39.54553 | 19.93967 | 20861 ft | 311 kts | 317° |
| 2026-04-27 15:12 | 39.56108 | 19.91954 | 20992 ft | 325 kts | 312° |
| 2026-04-27 15:12 | 39.58261 | 19.89059 | 21165 ft | 344 kts | 313° |
| 2026-04-27 15:13 | 39.59406 | 19.87528 | 21253 ft | 354 kts | 313° |
| 2026-04-27 15:13 | 39.61140 | 19.85220 | 21378 ft | 367 kts | 313° |
| 2026-04-27 15:13 | 39.62961 | 19.82802 | 21529 ft | 379 kts | 313° |
| 2026-04-27 15:13 | 39.64818 | 19.80338 | 21651 ft | 391 kts | 313° |
| 2026-04-27 15:14 | 39.66761 | 19.77756 | 21783 ft | 401 kts | 313° |
| 2026-04-27 15:14 | 39.68722 | 19.75147 | 21923 ft | 411 kts | 313° |
| 2026-04-27 15:14 | 39.70740 | 19.72461 | 22186 ft | 416 kts | 313° |
| 2026-04-27 15:14 | 39.72749 | 19.69781 | 22555 ft | 418 kts | 313° |
| 2026-04-27 15:15 | 39.74790 | 19.67054 | 22947 ft | 421 kts | 313° |
| 2026-04-27 15:15 | 39.76840 | 19.64310 | 23337 ft | 423 kts | 313° |
| 2026-04-27 15:15 | 39.78879 | 19.61573 | 23700 ft | 425 kts | 313° |
| 2026-04-27 15:15 | 39.80942 | 19.58802 | 24014 ft | 427 kts | 313° |
| 2026-04-27 15:16 | 39.82996 | 19.56041 | 24324 ft | 429 kts | 313° |
| 2026-04-27 15:16 | 39.85082 | 19.53239 | 24634 ft | 431 kts | 313° |
| 2026-04-27 15:16 | 39.87183 | 19.50421 | 24935 ft | 433 kts | 313° |
| 2026-04-27 15:16 | 39.89268 | 19.47623 | 25228 ft | 434 kts | 313° |
| 2026-04-27 15:17 | 39.91381 | 19.44789 | 25501 ft | 436 kts | 313° |
| 2026-04-27 15:17 | 39.93511 | 19.41936 | 25775 ft | 438 kts | 313° |
| 2026-04-27 15:17 | 39.95622 | 19.39104 | 26046 ft | 440 kts | 313° |
| 2026-04-27 15:17 | 39.97768 | 19.36216 | 26310 ft | 441 kts | 313° |
| 2026-04-27 15:18 | 39.99881 | 19.33369 | 26586 ft | 443 kts | 313° |
| 2026-04-27 15:18 | 40.02044 | 19.30450 | 26856 ft | 445 kts | 313° |
| 2026-04-27 15:18 | 40.04177 | 19.27566 | 27176 ft | 445 kts | 313° |
| 2026-04-27 15:18 | 40.06336 | 19.24647 | 27568 ft | 443 kts | 313° |
| 2026-04-27 15:19 | 40.08461 | 19.21773 | 27944 ft | 442 kts | 313° |
| 2026-04-27 15:19 | 40.10598 | 19.18878 | 28330 ft | 441 kts | 313° |
| 2026-04-27 15:19 | 40.12732 | 19.15984 | 28729 ft | 440 kts | 313° |
| 2026-04-27 15:19 | 40.14840 | 19.13125 | 29092 ft | 439 kts | 313° |
| 2026-04-27 15:20 | 40.16963 | 19.10243 | 29478 ft | 439 kts | 313° |
| 2026-04-27 15:20 | 40.19086 | 19.07354 | 29827 ft | 439 kts | 313° |
| 2026-04-27 15:20 | 40.21204 | 19.04471 | 30198 ft | 438 kts | 313° |
| 2026-04-27 15:20 | 40.23292 | 19.01623 | 30500 ft | 437 kts | 313° |
| 2026-04-27 15:21 | 40.25542 | 18.98907 | 30818 ft | 437 kts | 320° |
| 2026-04-27 15:21 | 40.27949 | 18.96457 | 31144 ft | 436 kts | 321° |
| 2026-04-27 15:21 | 40.30323 | 18.94040 | 31467 ft | 435 kts | 320° |
| 2026-04-27 15:21 | 40.32716 | 18.91603 | 31802 ft | 434 kts | 320° |
| 2026-04-27 15:22 | 40.35106 | 18.89169 | 32131 ft | 433 kts | 320° |
| 2026-04-27 15:22 | 40.37460 | 18.86766 | 32457 ft | 432 kts | 320° |
| 2026-04-27 15:22 | 40.39835 | 18.84340 | 32786 ft | 431 kts | 320° |
| 2026-04-27 15:22 | 40.42183 | 18.81938 | 33106 ft | 430 kts | 320° |
| 2026-04-27 15:23 | 40.44545 | 18.79516 | 33476 ft | 428 kts | 320° |
| 2026-04-27 15:23 | 40.46894 | 18.77108 | 33836 ft | 426 kts | 320° |
| 2026-04-27 15:23 | 40.49201 | 18.74739 | 34156 ft | 425 kts | 320° |
| 2026-04-27 15:23 | 40.51532 | 18.72339 | 34428 ft | 424 kts | 320° |
| 2026-04-27 15:24 | 40.53867 | 18.69935 | 34690 ft | 423 kts | 320° |
| 2026-04-27 15:24 | 40.56194 | 18.67539 | 34938 ft | 423 kts | 320° |
| 2026-04-27 15:24 | 40.58487 | 18.65177 | 35171 ft | 423 kts | 320° |
| 2026-04-27 15:24 | 40.60793 | 18.62800 | 35398 ft | 423 kts | 320° |
| 2026-04-27 15:25 | 40.63116 | 18.60402 | 35631 ft | 422 kts | 320° |
| 2026-04-27 15:25 | 40.65434 | 18.58009 | 35851 ft | 422 kts | 320° |
| 2026-04-27 15:25 | 40.67745 | 18.55619 | 36030 ft | 422 kts | 320° |
| 2026-04-27 15:25 | 40.70060 | 18.53221 | 36082 ft | 425 kts | 320° |
| 2026-04-27 15:26 | 40.74696 | 18.48411 | 36080 ft | 426 kts | 320° |
| 2026-04-27 15:26 | 40.79370 | 18.43567 | 36080 ft | 426 kts | 320° |
| 2026-04-27 15:27 | 40.84003 | 18.38740 | 36085 ft | 426 kts | 319° |
| 2026-04-27 15:27 | 40.88665 | 18.33880 | 36084 ft | 425 kts | 319° |
| 2026-04-27 15:28 | 40.93302 | 18.29049 | 36090 ft | 425 kts | 319° |
| 2026-04-27 15:28 | 40.97928 | 18.24204 | 36093 ft | 425 kts | 319° |
| 2026-04-27 15:29 | 41.02582 | 18.19324 | 36096 ft | 425 kts | 319° |
| 2026-04-27 15:29 | 41.07211 | 18.14466 | 36092 ft | 425 kts | 319° |
| 2026-04-27 15:30 | 41.11821 | 18.09611 | 36091 ft | 425 kts | 319° |
| 2026-04-27 15:30 | 41.16447 | 18.04739 | 36090 ft | 425 kts | 319° |
| 2026-04-27 15:31 | 41.21061 | 17.99867 | 36105 ft | 424 kts | 319° |
| 2026-04-27 15:31 | 41.25697 | 17.94970 | 36099 ft | 424 kts | 319° |
| 2026-04-27 15:32 | 41.30296 | 17.90101 | 36090 ft | 424 kts | 319° |
| 2026-04-27 15:32 | 41.34878 | 17.85229 | 36093 ft | 423 kts | 319° |
| 2026-04-27 15:33 | 41.39485 | 17.80329 | 36094 ft | 423 kts | 319° |
| 2026-04-27 15:33 | 41.44100 | 17.75417 | 36095 ft | 423 kts | 319° |
| 2026-04-27 15:34 | 41.48683 | 17.70525 | 36094 ft | 423 kts | 319° |
| 2026-04-27 15:34 | 41.53262 | 17.65617 | 36090 ft | 423 kts | 319° |
| 2026-04-27 15:35 | 41.57847 | 17.60702 | 36090 ft | 423 kts | 319° |
| 2026-04-27 15:35 | 41.62458 | 17.55766 | 36092 ft | 423 kts | 319° |
| 2026-04-27 15:36 | 41.67104 | 17.50978 | 36108 ft | 424 kts | 321° |
| 2026-04-27 15:36 | 41.71827 | 17.46255 | 36107 ft | 423 kts | 321° |
| 2026-04-27 15:37 | 41.76521 | 17.41526 | 36098 ft | 423 kts | 320° |
| 2026-04-27 15:37 | 41.81223 | 17.36733 | 36090 ft | 423 kts | 320° |
| 2026-04-27 15:38 | 41.85887 | 17.31965 | 36095 ft | 423 kts | 320° |
| 2026-04-27 15:38 | 41.90581 | 17.27155 | 36094 ft | 423 kts | 320° |
| 2026-04-27 15:39 | 41.95223 | 17.22337 | 36105 ft | 423 kts | 320° |
| 2026-04-27 15:39 | 41.99831 | 17.17390 | 36102 ft | 423 kts | 319° |
| 2026-04-27 15:40 | 42.04425 | 17.12393 | 36099 ft | 423 kts | 319° |
| 2026-04-27 15:40 | 42.08997 | 17.07425 | 36098 ft | 424 kts | 319° |
| 2026-04-27 15:41 | 42.13587 | 17.02453 | 36085 ft | 423 kts | 320° |
| 2026-04-27 15:41 | 42.18162 | 16.97506 | 36099 ft | 423 kts | 320° |
| 2026-04-27 15:42 | 42.22750 | 16.92544 | 36093 ft | 423 kts | 320° |
| 2026-04-27 15:42 | 42.27360 | 16.87536 | 36090 ft | 424 kts | 320° |
| 2026-04-27 15:43 | 42.31932 | 16.82556 | 36090 ft | 424 kts | 320° |
| 2026-04-27 15:43 | 42.36512 | 16.77552 | 36091 ft | 424 kts | 320° |
| 2026-04-27 15:44 | 42.41112 | 16.72511 | 36095 ft | 424 kts | 320° |
| 2026-04-27 15:44 | 42.45682 | 16.67511 | 36083 ft | 424 kts | 320° |
| 2026-04-27 15:45 | 42.50291 | 16.62455 | 36088 ft | 425 kts | 320° |
| 2026-04-27 15:45 | 42.54867 | 16.57414 | 36090 ft | 425 kts | 320° |
| 2026-04-27 15:46 | 42.59474 | 16.52341 | 36095 ft | 425 kts | 320° |
| 2026-04-27 15:46 | 42.64062 | 16.47278 | 36103 ft | 426 kts | 320° |
| 2026-04-27 15:47 | 42.68636 | 16.42207 | 36099 ft | 426 kts | 320° |
| 2026-04-27 15:47 | 42.73240 | 16.37093 | 36099 ft | 426 kts | 320° |
| 2026-04-27 15:48 | 42.77815 | 16.32009 | 36090 ft | 426 kts | 320° |
| 2026-04-27 15:49 | 42.84706 | 16.24333 | 36095 ft | 427 kts | 320° |
| 2026-04-27 15:49 | 42.89289 | 16.19222 | 36094 ft | 427 kts | 321° |
| 2026-04-27 15:50 | 42.93875 | 16.14098 | 36095 ft | 427 kts | 321° |
| 2026-04-27 15:50 | 42.98488 | 16.08926 | 36094 ft | 427 kts | 321° |
| 2026-04-27 15:51 | 43.03065 | 16.03781 | 36093 ft | 427 kts | 321° |
| 2026-04-27 15:51 | 43.07635 | 15.98634 | 36080 ft | 427 kts | 321° |
| 2026-04-27 15:52 | 43.12241 | 15.93434 | 36082 ft | 427 kts | 321° |
| 2026-04-27 15:52 | 43.16809 | 15.88277 | 36082 ft | 428 kts | 321° |
| 2026-04-27 15:53 | 43.21423 | 15.83064 | 36078 ft | 428 kts | 321° |
| 2026-04-27 15:53 | 43.26004 | 15.77867 | 36079 ft | 428 kts | 321° |
| 2026-04-27 15:54 | 43.30596 | 15.72638 | 36081 ft | 428 kts | 321° |
| 2026-04-27 15:54 | 43.35156 | 15.67438 | 36081 ft | 428 kts | 321° |
| 2026-04-27 15:55 | 43.39728 | 15.62221 | 36061 ft | 428 kts | 321° |
| 2026-04-27 15:55 | 43.44328 | 15.56959 | 36061 ft | 428 kts | 321° |
| 2026-04-27 15:56 | 43.48897 | 15.51733 | 36060 ft | 429 kts | 321° |
| 2026-04-27 15:56 | 43.53461 | 15.46493 | 36060 ft | 429 kts | 321° |
| 2026-04-27 15:57 | 43.58058 | 15.41187 | 36068 ft | 429 kts | 321° |
| 2026-04-27 15:57 | 43.62623 | 15.35919 | 36069 ft | 430 kts | 321° |
| 2026-04-27 15:58 | 43.67220 | 15.30616 | 36068 ft | 430 kts | 321° |
| 2026-04-27 15:58 | 43.71819 | 15.25289 | 36059 ft | 430 kts | 320° |
| 2026-04-27 15:59 | 43.76392 | 15.19983 | 36073 ft | 430 kts | 320° |
| 2026-04-27 15:59 | 43.80990 | 15.14650 | 36075 ft | 430 kts | 320° |
| 2026-04-27 16:00 | 43.85553 | 15.09329 | 36076 ft | 430 kts | 320° |
| 2026-04-27 16:00 | 43.90144 | 15.03964 | 36084 ft | 430 kts | 320° |
| 2026-04-27 16:01 | 43.94700 | 14.98630 | 36084 ft | 430 kts | 320° |
| 2026-04-27 16:01 | 43.99274 | 14.93267 | 36081 ft | 430 kts | 320° |
| 2026-04-27 16:02 | 44.03831 | 14.87911 | 36076 ft | 430 kts | 320° |
| 2026-04-27 16:02 | 44.07633 | 14.83433 | 36076 ft | 430 kts | 320° |
| 2026-04-27 16:03 | 44.12201 | 14.78048 | 36078 ft | 430 kts | 320° |
| 2026-04-27 16:03 | 44.16763 | 14.72664 | 36076 ft | 429 kts | 320° |
| 2026-04-27 16:04 | 44.21318 | 14.67278 | 36076 ft | 429 kts | 320° |
| 2026-04-27 16:04 | 44.25863 | 14.61875 | 36089 ft | 429 kts | 320° |
| 2026-04-27 16:05 | 44.30405 | 14.56468 | 36086 ft | 429 kts | 320° |
| 2026-04-27 16:05 | 44.34937 | 14.51075 | 36084 ft | 429 kts | 320° |
| 2026-04-27 16:06 | 44.39461 | 14.45680 | 36087 ft | 428 kts | 320° |
| 2026-04-27 16:06 | 44.43978 | 14.40266 | 36085 ft | 429 kts | 320° |
| 2026-04-27 16:07 | 44.48516 | 14.34812 | 36085 ft | 429 kts | 319° |
| 2026-04-27 16:07 | 44.53048 | 14.29357 | 36085 ft | 429 kts | 319° |
| 2026-04-27 16:08 | 44.57556 | 14.23929 | 36087 ft | 428 kts | 319° |
| 2026-04-27 16:08 | 44.62080 | 14.18478 | 36086 ft | 428 kts | 319° |
| 2026-04-27 16:09 | 44.66585 | 14.13035 | 36088 ft | 428 kts | 319° |
| 2026-04-27 16:09 | 44.73347 | 14.04818 | 36092 ft | 428 kts | 319° |
| 2026-04-27 16:10 | 44.82339 | 13.93883 | 36093 ft | 428 kts | 319° |
| 2026-04-27 16:11 | 44.89067 | 13.85641 | 36093 ft | 428 kts | 319° |
| 2026-04-27 16:12 | 44.95801 | 13.77388 | 36089 ft | 427 kts | 319° |
| 2026-04-27 16:13 | 45.02525 | 13.69129 | 36081 ft | 427 kts | 319° |
| 2026-04-27 16:13 | 45.09257 | 13.60825 | 36078 ft | 427 kts | 319° |
| 2026-04-27 16:14 | 45.18149 | 13.49792 | 36078 ft | 427 kts | 319° |
| 2026-04-27 16:15 | 45.27072 | 13.38682 | 36082 ft | 426 kts | 319° |
| 2026-04-27 16:16 | 45.35993 | 13.27547 | 36082 ft | 427 kts | 319° |
| 2026-04-27 16:17 | 45.44903 | 13.16383 | 36075 ft | 426 kts | 319° |
| 2026-04-27 16:18 | 45.53779 | 13.05183 | 36068 ft | 426 kts | 319° |
| 2026-04-27 16:19 | 45.58205 | 12.99582 | 36064 ft | 426 kts | 319° |
| 2026-04-27 16:20 | 45.67072 | 12.88342 | 36063 ft | 426 kts | 319° |
| 2026-04-27 16:21 | 45.73698 | 12.79894 | 36065 ft | 426 kts | 319° |
| 2026-04-27 16:22 | 45.82526 | 12.68589 | 36087 ft | 426 kts | 319° |
| 2026-04-27 16:22 | 45.89144 | 12.60115 | 36094 ft | 426 kts | 318° |
| 2026-04-27 16:23 | 45.95751 | 12.51619 | 36101 ft | 425 kts | 318° |
| 2026-04-27 16:24 | 46.00165 | 12.45915 | 36096 ft | 425 kts | 318° |
| 2026-04-27 16:25 | 46.08939 | 12.34535 | 36076 ft | 425 kts | 318° |
| 2026-04-27 16:26 | 46.17725 | 12.23113 | 36073 ft | 425 kts | 318° |
| 2026-04-27 16:27 | 46.26476 | 12.11661 | 36070 ft | 425 kts | 317° |
| 2026-04-27 16:28 | 46.37405 | 11.97306 | 36079 ft | 425 kts | 317° |
| 2026-04-27 16:29 | 46.48281 | 11.82920 | 36066 ft | 423 kts | 317° |
| 2026-04-27 16:30 | 46.56969 | 11.71371 | 36049 ft | 422 kts | 317° |
| 2026-04-27 16:31 | 46.67770 | 11.56962 | 36040 ft | 422 kts | 317° |
| 2026-04-27 16:32 | 46.74265 | 11.48248 | 36040 ft | 421 kts | 317° |
| 2026-04-27 16:33 | 46.80725 | 11.39562 | 36041 ft | 420 kts | 316° |
| 2026-04-27 16:33 | 46.85016 | 11.33783 | 36057 ft | 419 kts | 316° |
| 2026-04-27 16:34 | 46.89283 | 11.28016 | 36069 ft | 419 kts | 316° |
| 2026-04-27 16:34 | 46.93539 | 11.22229 | 36063 ft | 418 kts | 316° |
| 2026-04-27 16:35 | 46.97671 | 11.16187 | 36085 ft | 418 kts | 312° |
| 2026-04-27 16:36 | 47.03508 | 11.06684 | 36080 ft | 417 kts | 311° |
| 2026-04-27 16:36 | 47.07400 | 11.00394 | 36115 ft | 417 kts | 311° |
| 2026-04-27 16:37 | 47.11318 | 10.94158 | 36115 ft | 416 kts | 312° |
| 2026-04-27 16:37 | 47.15256 | 10.87893 | 36127 ft | 415 kts | 311° |
| 2026-04-27 16:38 | 47.19158 | 10.81652 | 36126 ft | 416 kts | 311° |
| 2026-04-27 16:38 | 47.23049 | 10.75395 | 36136 ft | 415 kts | 311° |
| 2026-04-27 16:39 | 47.26966 | 10.69090 | 36132 ft | 415 kts | 311° |
| 2026-04-27 16:39 | 47.30843 | 10.62841 | 36151 ft | 415 kts | 311° |
| 2026-04-27 16:40 | 47.34743 | 10.56535 | 36165 ft | 415 kts | 311° |
| 2026-04-27 16:40 | 47.38603 | 10.50265 | 36168 ft | 414 kts | 311° |
| 2026-04-27 16:41 | 47.42942 | 10.44619 | 36158 ft | 416 kts | 320° |
| 2026-04-27 16:41 | 47.47502 | 10.39399 | 36156 ft | 416 kts | 320° |
| 2026-04-27 16:42 | 47.52072 | 10.34130 | 36149 ft | 416 kts | 320° |
| 2026-04-27 16:42 | 47.56627 | 10.28866 | 36168 ft | 416 kts | 319° |
| 2026-04-27 16:43 | 47.61171 | 10.23610 | 36152 ft | 415 kts | 319° |
| 2026-04-27 16:43 | 47.65734 | 10.18313 | 36150 ft | 415 kts | 319° |
| 2026-04-27 16:44 | 47.70257 | 10.13050 | 36148 ft | 415 kts | 319° |
| 2026-04-27 16:44 | 47.74820 | 10.07746 | 36138 ft | 415 kts | 319° |
| 2026-04-27 16:45 | 47.79341 | 10.02475 | 36153 ft | 415 kts | 319° |
| 2026-04-27 16:45 | 47.83883 | 9.97158 | 36151 ft | 414 kts | 319° |
| 2026-04-27 16:46 | 47.88392 | 9.91869 | 36148 ft | 414 kts | 319° |
| 2026-04-27 16:46 | 47.92924 | 9.86538 | 36142 ft | 413 kts | 319° |
| 2026-04-27 16:47 | 47.97417 | 9.81243 | 36138 ft | 413 kts | 319° |
| 2026-04-27 16:47 | 48.01936 | 9.75907 | 36137 ft | 412 kts | 319° |
| 2026-04-27 16:48 | 48.06403 | 9.70613 | 36144 ft | 412 kts | 318° |
| 2026-04-27 16:48 | 48.10054 | 9.66037 | 36142 ft | 409 kts | 313° |
| 2026-04-27 16:49 | 48.16876 | 9.56172 | 36136 ft | 409 kts | 313° |
| 2026-04-27 16:49 | 48.20956 | 9.50238 | 36132 ft | 409 kts | 313° |
| 2026-04-27 16:50 | 48.24375 | 9.45268 | 36128 ft | 409 kts | 313° |
| 2026-04-27 16:50 | 48.28437 | 9.39343 | 36145 ft | 408 kts | 313° |
| 2026-04-27 16:51 | 48.32502 | 9.33407 | 36137 ft | 408 kts | 313° |
| 2026-04-27 16:51 | 48.36586 | 9.27435 | 36136 ft | 408 kts | 313° |
| 2026-04-27 16:52 | 48.40632 | 9.21503 | 36134 ft | 408 kts | 313° |
| 2026-04-27 16:52 | 48.44694 | 9.15531 | 36135 ft | 408 kts | 313° |
| 2026-04-27 16:53 | 48.48736 | 9.09562 | 36126 ft | 407 kts | 312° |
| 2026-04-27 16:53 | 48.52797 | 9.03562 | 36127 ft | 407 kts | 313° |
| 2026-04-27 16:54 | 48.56833 | 8.97588 | 36129 ft | 408 kts | 312° |
| 2026-04-27 16:54 | 48.60870 | 8.91579 | 36129 ft | 408 kts | 312° |
| 2026-04-27 16:55 | 48.64905 | 8.85567 | 36127 ft | 408 kts | 312° |
| 2026-04-27 16:55 | 48.68969 | 8.79516 | 36128 ft | 408 kts | 312° |
| 2026-04-27 16:56 | 48.73003 | 8.73495 | 36139 ft | 408 kts | 312° |
| 2026-04-27 16:56 | 48.77036 | 8.67451 | 36142 ft | 409 kts | 311° |
| 2026-04-27 16:57 | 48.81082 | 8.61364 | 36143 ft | 410 kts | 311° |
| 2026-04-27 16:57 | 48.85122 | 8.55277 | 36137 ft | 410 kts | 311° |
| 2026-04-27 16:58 | 48.89164 | 8.49178 | 36133 ft | 410 kts | 311° |
| 2026-04-27 16:58 | 48.93215 | 8.43038 | 36134 ft | 410 kts | 311° |
| 2026-04-27 16:59 | 48.97238 | 8.36920 | 36145 ft | 410 kts | 311° |
| 2026-04-27 16:59 | 49.01262 | 8.30781 | 36155 ft | 410 kts | 311° |
| 2026-04-27 17:00 | 49.07310 | 8.21575 | 36157 ft | 409 kts | 311° |
| 2026-04-27 17:01 | 49.11341 | 8.15411 | 36156 ft | 409 kts | 311° |
| 2026-04-27 17:01 | 49.15340 | 8.09264 | 36156 ft | 408 kts | 311° |
| 2026-04-27 17:02 | 49.19350 | 8.03094 | 36153 ft | 408 kts | 311° |
| 2026-04-27 17:02 | 49.23351 | 7.96934 | 36156 ft | 409 kts | 311° |
| 2026-04-27 17:03 | 49.27345 | 7.90757 | 36173 ft | 409 kts | 311° |
| 2026-04-27 17:03 | 49.31343 | 7.84566 | 36156 ft | 410 kts | 311° |
| 2026-04-27 17:04 | 49.35343 | 7.78355 | 36155 ft | 410 kts | 310° |
| 2026-04-27 17:04 | 49.39340 | 7.72137 | 36154 ft | 410 kts | 310° |
| 2026-04-27 17:05 | 49.43353 | 7.65876 | 36154 ft | 410 kts | 310° |
| 2026-04-27 17:05 | 49.47363 | 7.59593 | 36151 ft | 410 kts | 310° |
| 2026-04-27 17:06 | 49.51356 | 7.53336 | 36172 ft | 411 kts | 310° |
| 2026-04-27 17:06 | 49.55342 | 7.47062 | 36183 ft | 411 kts | 310° |
| 2026-04-27 17:07 | 49.59346 | 7.40744 | 36184 ft | 411 kts | 310° |
| 2026-04-27 17:07 | 49.63331 | 7.34458 | 36180 ft | 411 kts | 310° |
| 2026-04-27 17:08 | 49.67322 | 7.28159 | 36184 ft | 411 kts | 310° |
| 2026-04-27 17:08 | 49.71323 | 7.21803 | 36186 ft | 411 kts | 310° |
| 2026-04-27 17:09 | 49.75293 | 7.15468 | 36199 ft | 411 kts | 310° |
| 2026-04-27 17:09 | 49.79270 | 7.09109 | 36190 ft | 411 kts | 310° |
| 2026-04-27 17:10 | 49.83261 | 7.02722 | 36170 ft | 411 kts | 310° |
| 2026-04-27 17:10 | 49.87227 | 6.96355 | 36171 ft | 411 kts | 309° |
| 2026-04-27 17:11 | 49.91188 | 6.89992 | 36157 ft | 411 kts | 309° |
| 2026-04-27 17:11 | 49.97139 | 6.80398 | 36149 ft | 412 kts | 309° |
| 2026-04-27 17:12 | 50.03095 | 6.70744 | 36163 ft | 413 kts | 309° |
| 2026-04-27 17:13 | 50.07060 | 6.64308 | 36153 ft | 413 kts | 309° |
| 2026-04-27 17:13 | 50.11044 | 6.57817 | 36152 ft | 413 kts | 309° |
| 2026-04-27 17:14 | 50.15004 | 6.51344 | 36159 ft | 413 kts | 309° |
| 2026-04-27 17:14 | 50.18872 | 6.44687 | 36157 ft | 410 kts | 302° |
| 2026-04-27 17:15 | 50.21879 | 6.37232 | 36148 ft | 407 kts | 298° |
| 2026-04-27 17:15 | 50.24839 | 6.29712 | 36149 ft | 408 kts | 298° |
| 2026-04-27 17:16 | 50.27822 | 6.22122 | 36175 ft | 409 kts | 298° |
| 2026-04-27 17:16 | 50.30787 | 6.14558 | 36171 ft | 409 kts | 298° |
| 2026-04-27 17:17 | 50.33748 | 6.06972 | 36167 ft | 409 kts | 298° |
| 2026-04-27 17:17 | 50.36727 | 5.99338 | 36174 ft | 409 kts | 298° |
| 2026-04-27 17:18 | 50.41140 | 5.87980 | 36164 ft | 409 kts | 298° |
| 2026-04-27 17:18 | 50.44101 | 5.80334 | 36163 ft | 409 kts | 298° |
| 2026-04-27 17:19 | 50.47030 | 5.72722 | 36165 ft | 409 kts | 297° |
| 2026-04-27 17:19 | 50.49961 | 5.65096 | 36161 ft | 409 kts | 297° |
| 2026-04-27 17:20 | 50.52893 | 5.57446 | 36193 ft | 409 kts | 297° |
| 2026-04-27 17:20 | 50.55838 | 5.49753 | 36183 ft | 409 kts | 297° |
| 2026-04-27 17:21 | 50.58760 | 5.42106 | 36184 ft | 409 kts | 297° |
| 2026-04-27 17:21 | 50.61693 | 5.34390 | 36187 ft | 409 kts | 297° |
| 2026-04-27 17:22 | 50.64593 | 5.26721 | 36197 ft | 409 kts | 297° |
| 2026-04-27 17:22 | 50.67506 | 5.18994 | 36193 ft | 409 kts | 297° |
| 2026-04-27 17:23 | 50.70409 | 5.11287 | 36190 ft | 409 kts | 297° |
| 2026-04-27 17:23 | 50.73305 | 5.03588 | 36191 ft | 409 kts | 297° |
| 2026-04-27 17:24 | 50.76199 | 4.95880 | 36188 ft | 409 kts | 297° |
| 2026-04-27 17:24 | 50.79109 | 4.88083 | 36208 ft | 410 kts | 297° |
| 2026-04-27 17:25 | 50.81986 | 4.80338 | 36205 ft | 411 kts | 297° |
| 2026-04-27 17:25 | 50.84885 | 4.72510 | 36201 ft | 411 kts | 297° |
| 2026-04-27 17:26 | 50.87762 | 4.64725 | 36192 ft | 412 kts | 297° |
| 2026-04-27 17:26 | 50.90639 | 4.56912 | 36184 ft | 412 kts | 297° |
| 2026-04-27 17:27 | 50.93545 | 4.49026 | 36185 ft | 413 kts | 297° |
| 2026-04-27 17:27 | 50.96428 | 4.41167 | 36185 ft | 413 kts | 297° |
| 2026-04-27 17:28 | 50.99298 | 4.33308 | 36188 ft | 413 kts | 297° |
| 2026-04-27 17:29 | 51.03615 | 4.21432 | 36192 ft | 413 kts | 297° |
| 2026-04-27 17:29 | 51.06479 | 4.13539 | 36207 ft | 413 kts | 297° |
| 2026-04-27 17:30 | 51.09346 | 4.05619 | 36206 ft | 413 kts | 296° |
| 2026-04-27 17:30 | 51.13642 | 3.93693 | 36205 ft | 413 kts | 296° |
| 2026-04-27 17:31 | 51.16491 | 3.85776 | 36209 ft | 413 kts | 296° |
| 2026-04-27 17:31 | 51.19346 | 3.77771 | 36198 ft | 413 kts | 296° |
| 2026-04-27 17:32 | 51.23416 | 3.65665 | 36196 ft | 411 kts | 288° |
| 2026-04-27 17:33 | 51.24795 | 3.56869 | 36205 ft | 409 kts | 281° |
| 2026-04-27 17:33 | 51.25970 | 3.48015 | 36205 ft | 409 kts | 280° |
| 2026-04-27 17:34 | 51.27147 | 3.39083 | 36212 ft | 410 kts | 280° |
| 2026-04-27 17:34 | 51.28301 | 3.30199 | 36213 ft | 410 kts | 281° |
| 2026-04-27 17:35 | 51.29445 | 3.21282 | 36233 ft | 411 kts | 281° |
| 2026-04-27 17:35 | 51.30587 | 3.12313 | 36227 ft | 412 kts | 281° |
| 2026-04-27 17:36 | 51.31722 | 3.03307 | 36228 ft | 413 kts | 281° |
| 2026-04-27 17:36 | 51.32849 | 2.94350 | 36213 ft | 413 kts | 281° |
| 2026-04-27 17:37 | 51.33984 | 2.85299 | 36209 ft | 414 kts | 281° |
| 2026-04-27 17:37 | 51.35100 | 2.76286 | 36211 ft | 414 kts | 281° |
| 2026-04-27 17:38 | 51.36218 | 2.67269 | 36215 ft | 414 kts | 281° |
| 2026-04-27 17:38 | 51.37150 | 2.59716 | 36216 ft | 415 kts | 281° |
| 2026-04-27 17:39 | 51.38257 | 2.50637 | 36213 ft | 415 kts | 280° |
| 2026-04-27 17:39 | 51.39353 | 2.41593 | 36217 ft | 415 kts | 280° |
| 2026-04-27 17:40 | 51.40438 | 2.32540 | 36213 ft | 415 kts | 281° |
| 2026-04-27 17:40 | 51.41531 | 2.23438 | 36216 ft | 415 kts | 281° |
| 2026-04-27 17:41 | 51.42642 | 2.14368 | 36215 ft | 416 kts | 281° |
| 2026-04-27 17:41 | 51.43762 | 2.05283 | 36217 ft | 416 kts | 281° |
| 2026-04-27 17:42 | 51.44853 | 1.96184 | 36220 ft | 416 kts | 281° |
| 2026-04-27 17:42 | 51.45919 | 1.87086 | 36211 ft | 416 kts | 281° |
| 2026-04-27 17:43 | 51.46973 | 1.77952 | 36216 ft | 417 kts | 281° |
| 2026-04-27 17:43 | 51.48023 | 1.68799 | 36219 ft | 418 kts | 281° |
| 2026-04-27 17:44 | 51.49074 | 1.59650 | 36223 ft | 418 kts | 281° |
| 2026-04-27 17:44 | 51.50124 | 1.50455 | 36225 ft | 418 kts | 280° |
| 2026-04-27 17:45 | 51.51159 | 1.41273 | 36213 ft | 418 kts | 281° |
| 2026-04-27 17:45 | 51.52197 | 1.32031 | 36217 ft | 419 kts | 281° |
| 2026-04-27 17:46 | 51.53221 | 1.22819 | 36220 ft | 420 kts | 281° |
| 2026-04-27 17:46 | 51.54232 | 1.13593 | 36217 ft | 420 kts | 281° |
| 2026-04-27 17:47 | 51.55250 | 1.04317 | 36221 ft | 421 kts | 281° |
| 2026-04-27 17:47 | 51.56252 | 0.95076 | 36208 ft | 421 kts | 281° |
| 2026-04-27 17:48 | 51.57248 | 0.85823 | 36246 ft | 421 kts | 282° |
| 2026-04-27 17:48 | 51.58243 | 0.76506 | 36247 ft | 421 kts | 281° |
| 2026-04-27 17:49 | 51.59220 | 0.67246 | 36247 ft | 421 kts | 281° |
| 2026-04-27 17:49 | 51.60191 | 0.57999 | 36246 ft | 421 kts | 281° |
| 2026-04-27 17:50 | 51.61168 | 0.48687 | 36242 ft | 421 kts | 281° |
| 2026-04-27 17:50 | 51.62610 | 0.34748 | 36203 ft | 421 kts | 282° |
| 2026-04-27 17:51 | 51.63561 | 0.25459 | 36204 ft | 422 kts | 281° |
| 2026-04-27 17:51 | 51.64590 | 0.16180 | 36194 ft | 422 kts | 287° |
| 2026-04-27 17:52 | 51.65530 | 0.11694 | 35705 ft | 422 kts | 294° |
| 2026-04-27 17:52 | 51.66756 | 0.07352 | 34755 ft | 427 kts | 296° |
| 2026-04-27 17:52 | 51.67997 | 0.03038 | 33839 ft | 430 kts | 296° |
| 2026-04-27 17:52 | 51.69262 | -0.01375 | 32915 ft | 433 kts | 296° |
| 2026-04-27 17:53 | 51.70512 | -0.05785 | 32226 ft | 428 kts | 296° |
| 2026-04-27 17:53 | 51.71725 | -0.10103 | 31363 ft | 428 kts | 296° |
| 2026-04-27 17:53 | 51.72950 | -0.14488 | 30500 ft | 427 kts | 296° |
| 2026-04-27 17:53 | 51.74167 | -0.18866 | 29416 ft | 422 kts | 296° |
| 2026-04-27 17:54 | 51.75355 | -0.23144 | 27738 ft | 423 kts | 296° |
| 2026-04-27 17:54 | 51.76567 | -0.27511 | 25898 ft | 428 kts | 295° |
| 2026-04-27 17:54 | 51.77783 | -0.31896 | 24551 ft | 431 kts | 295° |
| 2026-04-27 17:54 | 51.79075 | -0.36265 | 23349 ft | 431 kts | 300° |
| 2026-04-27 17:55 | 51.80771 | -0.40215 | 22587 ft | 424 kts | 309° |
| 2026-04-27 17:55 | 51.82848 | -0.43627 | 22380 ft | 424 kts | 318° |
| 2026-04-27 17:55 | 51.85199 | -0.46407 | 22210 ft | 425 kts | 326° |
| 2026-04-27 17:55 | 51.87743 | -0.48897 | 22068 ft | 426 kts | 327° |
| 2026-04-27 17:56 | 51.90277 | -0.51370 | 21141 ft | 422 kts | 326° |
| 2026-04-27 17:56 | 51.92754 | -0.53786 | 20261 ft | 418 kts | 326° |
| 2026-04-27 17:56 | 51.95243 | -0.56210 | 19583 ft | 412 kts | 326° |
| 2026-04-27 17:56 | 51.97692 | -0.58594 | 19159 ft | 407 kts | 326° |
| 2026-04-27 17:57 | 52.00092 | -0.60936 | 18725 ft | 403 kts | 326° |
| 2026-04-27 17:57 | 52.02384 | -0.63547 | 18199 ft | 396 kts | 316° |
| 2026-04-27 17:57 | 52.04109 | -0.66907 | 17265 ft | 392 kts | 301° |
| 2026-04-27 17:57 | 52.05414 | -0.70808 | 16327 ft | 392 kts | 298° |
| 2026-04-27 17:58 | 52.06688 | -0.74736 | 15446 ft | 392 kts | 298° |
| 2026-04-27 17:58 | 52.07944 | -0.78637 | 15087 ft | 379 kts | 298° |
| 2026-04-27 17:58 | 52.09124 | -0.82312 | 14962 ft | 362 kts | 298° |
| 2026-04-27 17:58 | 52.10267 | -0.85873 | 14838 ft | 346 kts | 299° |
| 2026-04-27 17:59 | 52.11362 | -0.89273 | 14470 ft | 339 kts | 299° |
| 2026-04-27 17:59 | 52.12461 | -0.92675 | 13969 ft | 337 kts | 299° |
| 2026-04-27 17:59 | 52.13557 | -0.96057 | 13409 ft | 335 kts | 299° |
| 2026-04-27 17:59 | 52.14628 | -0.99360 | 12827 ft | 333 kts | 300° |
| 2026-04-27 18:00 | 52.15710 | -1.02703 | 12255 ft | 331 kts | 299° |
| 2026-04-27 18:00 | 52.16780 | -1.06019 | 11669 ft | 330 kts | 299° |
| 2026-04-27 18:00 | 52.17843 | -1.09321 | 11091 ft | 328 kts | 299° |
| 2026-04-27 18:00 | 52.18891 | -1.12580 | 10605 ft | 325 kts | 298° |
| 2026-04-27 18:01 | 52.19911 | -1.15762 | 10479 ft | 303 kts | 298° |
| 2026-04-27 18:01 | 52.20850 | -1.18703 | 10329 ft | 281 kts | 298° |
| 2026-04-27 18:01 | 52.21739 | -1.21488 | 9824 ft | 272 kts | 298° |
| 2026-04-27 18:01 | 52.22603 | -1.24187 | 9177 ft | 270 kts | 298° |
| 2026-04-27 18:02 | 52.23469 | -1.26894 | 8607 ft | 267 kts | 298° |
| 2026-04-27 18:02 | 52.24314 | -1.29536 | 8188 ft | 262 kts | 298° |
| 2026-04-27 18:02 | 52.25148 | -1.32156 | 7584 ft | 259 kts | 298° |
| 2026-04-27 18:02 | 52.25971 | -1.34743 | 7217 ft | 248 kts | 298° |
| 2026-04-27 18:03 | 52.26747 | -1.37191 | 6851 ft | 239 kts | 298° |
| 2026-04-27 18:03 | 52.27492 | -1.39551 | 6352 ft | 235 kts | 298° |
| 2026-04-27 18:03 | 52.28244 | -1.41928 | 5783 ft | 235 kts | 299° |
| 2026-04-27 18:03 | 52.28995 | -1.44302 | 5324 ft | 232 kts | 300° |
| 2026-04-27 18:04 | 52.29724 | -1.46608 | 4784 ft | 232 kts | 300° |
| 2026-04-27 18:04 | 52.30467 | -1.48950 | 4319 ft | 232 kts | 301° |
| 2026-04-27 18:04 | 52.31208 | -1.51288 | 3971 ft | 229 kts | 301° |
| 2026-04-27 18:04 | 52.31935 | -1.53592 | 3513 ft | 226 kts | 301° |
| 2026-04-27 18:05 | 52.32637 | -1.55829 | 3106 ft | 221 kts | 301° |
| 2026-04-27 18:05 | 52.33314 | -1.57985 | 2998 ft | 206 kts | 301° |
| 2026-04-27 18:05 | 52.33958 | -1.60038 | 2999 ft | 200 kts | 302° |
| 2026-04-27 18:05 | 52.34593 | -1.62056 | 2993 ft | 197 kts | 303° |
| 2026-04-27 18:06 | 52.35427 | -1.63757 | 2641 ft | 191 kts | 326° |
| 2026-04-27 18:06 | 52.36504 | -1.64961 | 2361 ft | 183 kts | 329° |
| 2026-04-27 18:06 | 52.37526 | -1.66091 | 2114 ft | 170 kts | 329° |
| 2026-04-27 18:06 | 52.38480 | -1.67147 | 1861 ft | 159 kts | 329° |
| 2026-04-27 18:07 | 52.39359 | -1.68120 | 1662 ft | 151 kts | 329° |
| 2026-04-27 18:07 | 52.40195 | -1.69046 | 1468 ft | 140 kts | 328° |
| 2026-04-27 18:07 | 52.40994 | -1.69930 | 1270 ft | 136 kts | 328° |
| 2026-04-27 18:07 | 52.41764 | -1.70783 | 1071 ft | 135 kts | 328° |
| 2026-04-27 18:08 | 52.42544 | -1.71646 | 884 ft | 136 kts | 328° |
| 2026-04-27 18:08 | 52.43322 | -1.72512 | 702 ft | 133 kts | 327° |
| 2026-04-27 18:08 | 52.44089 | -1.73361 | 486 ft | 131 kts | 324° |
| 2026-04-27 18:08 | 52.44836 | -1.74195 | 351 ft | 130 kts | 325° |
| 2026-04-27 18:09 | 52.45511 | -1.74942 | 322 ft | 94 kts | 326° |
| 2026-04-27 18:09 | 52.45916 | -1.75389 | 317 ft | 54 kts | 326° |
| 2026-04-27 18:09 | 52.46119 | -1.75609 | 310 ft | 14 kts | 341° |
| 2026-04-27 18:09 | 52.46193 | -1.75521 | 310 ft | 16 kts | 56° |
| 2026-04-27 18:10 | 52.46218 | -1.75415 | 304 ft | 11 kts | 102° |
| 2026-04-27 18:10 | 52.46166 | -1.75338 | 303 ft | 9 kts | 146° |
| 2026-04-27 18:10 | 52.46117 | -1.75285 | 306 ft | 8 kts | 146° |
| 2026-04-27 18:10 | 52.46048 | -1.75211 | 305 ft | 15 kts | 147° |
| 2026-04-27 18:11 | 52.45939 | -1.75091 | 306 ft | 22 kts | 146° |
| 2026-04-27 18:11 | 52.45847 | -1.74990 | 309 ft | 14 kts | 146° |
| 2026-04-27 18:11 | 52.45776 | -1.74909 | 309 ft | 12 kts | 145° |
| 2026-04-27 18:11 | 52.45711 | -1.74836 | 312 ft | 11 kts | 146° |
| 2026-04-27 18:12 | 52.45655 | -1.74775 | 315 ft | 9 kts | 146° |
| 2026-04-27 18:12 | 52.45595 | -1.74709 | 320 ft | 14 kts | 146° |
| 2026-04-27 18:12 | 52.45504 | -1.74610 | 323 ft | 18 kts | 147° |
| 2026-04-27 18:12 | 52.45429 | -1.74416 | 323 ft | 23 kts | 114° |
| 2026-04-27 18:13 | 52.45364 | -1.74210 | 322 ft | 16 kts | 119° |
| 2026-04-27 18:13 | 52.45306 | -1.74029 | 323 ft | 16 kts | 117° |
| 2026-04-27 18:13 | 52.45225 | -1.73913 | 322 ft | 14 kts | 146° |
| 2026-04-27 18:13 | 52.45131 | -1.73811 | 323 ft | 14 kts | 147° |
| 2026-04-27 18:14 | 52.45114 | -1.73686 | 323 ft | 8 kts | 53° |
| 2026-04-27 18:14 | 52.45156 | -1.73667 | 323 ft | 7 kts | 336° |
| 2026-04-27 18:14 | 52.45189 | -1.73703 | 323 ft | 2 kts | 324° |
| 2026-04-27 18:14 | 52.45197 | -1.73712 | 323 ft | 1 kts | 326° |
| 2026-04-27 18:15 | 52.45201 | -1.73716 | 323 ft | 0 kts | 326° |